Station: Horn Island  

  Atmospheric Gas Attenuation - ITU Rec 676-11   ----------------- dB/100km -----------------
Date Time Temp RH % AH g/m3 Dew Point Wind Direction Speed kph Gust kph Barometer mB Rainfall Since 9am 24GHz 47GHz 76GHz 122GHz 134GHz 241GHz
08/05 12:30 29.6 68 20.18 23.1 28 35 1010 0 43.0 39.9 77.8 205.8 228.2 793.4
08/05 12:20 29.8 67 20.1 23 33 37 1010.2 0 42.8 39.7 77.2 204.4 226.5 787.4
08/05 12:10 30 65 19.71 22.9 30 35 1010.4 0 41.9 38.9 75.3 199.2 220.2 765.5
08/05 12:00 29.7 69 20.59 23.4 28 35 1010.6 0 43.8 40.6 79.6 210.7 234.1 814.0
08/05 11:50 29.7 69 20.59 23.6 28 32 1010.9 0 43.8 40.7 79.6 210.7 234.2 814.2
08/05 11:40 29.5 68 20.07 23 28 32 1011 0 42.8 39.8 77.4 204.9 227.1 789.3
08/05 11:30 29.4 68 19.96 22.9 28 37 1011.1 0 42.5 39.6 77.0 203.9 225.8 784.7
08/05 11:20 29.4 69 20.26 23.3 30 33 1011.1 0 43.2 40.2 78.4 207.5 230.2 800.3
08/05 11:10 29.3 70 20.44 23.3 30 33 1011.2 0 43.6 40.6 79.3 210.0 233.2 810.8
08/05 11:00 29.9 70 21.12 23.8 26 35 1011.2 0 44.9 41.6 81.9 216.7 241.6 839.9
08/05 10:50 30.1 71 21.65 24.3 22 28 1011.2 0 46.0 42.4 84.1 222.7 249.0 865.7
08/05 10:40 29.7 71 21.19 23.9 26 30 1011.3 0 45.1 41.8 82.4 218.2 243.3 845.9
08/05 10:30 29.6 72 21.37 24 24 35 1011.4 0 45.5 42.2 83.4 220.7 246.4 856.6
08/05 10:20 29.5 72 21.25 24.1 28 33 1011.4 0 45.2 42.0 82.9 219.5 244.9 851.4
08/05 10:10 29.3 71 20.73 23.5 28 32 1011.4 0 44.2 41.1 80.7 213.6 237.6 826.1
08/05 10:00 29.4 74 21.73 24.3 26 37 1011.4 0 46.3 43.0 85.3 225.8 252.6 878.2
08/05 09:50 29.1 73 21.09 23.8 28 33 1011.5 0 44.9 41.9 82.6 218.7 243.8 847.4
08/05 09:40 29 72 20.68 23.4 26 32 1011.5 0 44.1 41.2 80.8 213.9 237.9 826.8
08/05 09:30 29.5 72 21.25 23.9 22 32 1011.4 0 45.2 42.0 82.9 219.5 244.9 851.4
08/05 09:20 29.1 74 21.37 24 20 24 1011.3 0 45.5 42.4 83.9 222.1 248.0 862.2
08/05 09:10 28.9 74 21.14 23.8 22 28 1011.3 0 45.1 42.1 83.0 219.8 245.2 852.2
08/05 09:00 28.8 73 20.74 23.5 24 33 1011.3 0 44.2 41.4 81.3 215.1 239.4 832.0
08/05 08:50 28.8 75 21.31 23.9 20 26 1011.1 0 45.4 42.5 83.9 222.2 248.1 862.3
08/05 08:40 28.6 75 21.08 23.9 19 20 1011.1 0 45.0 42.1 83.1 219.9 245.2 852.2
08/05 08:30 28 78 21.21 23.8 24 32 1011 0 45.3 42.7 84.4 223.3 249.2 866.0
08/05 08:20 27.8 79 21.25 23.8 22 26 1010.9 0 45.4 42.8 84.8 224.4 250.5 870.4
08/05 08:10 27.1 81 20.96 23.6 22 28 1011 0 44.9 42.7 84.2 222.8 248.3 862.8
08/05 08:00 26.9 82 20.99 23.6 19 28 1010.9 0 45.0 42.8 84.5 223.7 249.4 866.6
08/05 07:50 26.8 84 21.38 23.9 15 17 1010.9 0 45.8 43.6 86.5 229.1 255.9 889.3
08/05 07:40 26.6 84 21.15 23.7 15 17 1010.9 0 45.4 43.3 85.6 226.7 253.0 878.9
08/05 07:30 26.5 84 21.03 23.6 17 20 1010.9 0 45.1 43.1 85.2 225.5 251.4 873.5
08/05 07:20 26.4 84 20.91 23.5 13 15 1010.9 0 44.9 42.9 84.7 224.2 249.8 868.0
08/05 07:10 26.4 84 20.91 23.5 11 13 1010.9 0 44.9 42.9 84.7 224.2 249.8 868.0
08/05 07:00 26.3 85 21.04 23.6 13 20 1010.8 0 45.2 43.2 85.4 226.2 252.2 876.3
08/05 06:50 26.2 85 20.93 23.5 17 20 1010.8 0 44.9 43.1 85.0 225.0 250.8 871.4
08/05 06:40 26.2 84 20.68 23.3 19 22 1010.7 0 44.4 42.6 83.8 221.8 246.8 857.6
08/05 06:30 26.1 85 20.81 23.4 15 22 1010.6 0 44.7 42.9 84.5 223.8 249.2 865.8
08/05 06:20 26.1 85 20.81 23.4 15 17 1010.6 0 44.7 42.9 84.5 223.8 249.2 865.8
08/05 06:10 26.1 85 20.81 23.4 13 15 1010.6 0 44.7 42.9 84.5 223.8 249.2 865.8
08/05 06:00 26.2 85 20.93 23.5 19 24 1010.5 0 45.0 43.0 85.0 225.0 250.8 871.2
08/05 05:50 26.2 84 20.68 23.3 20 24 1010.5 0 44.4 42.6 83.8 221.8 246.8 857.4
08/05 05:40 26.2 85 20.93 23.5 20 22 1010.5 0 45.0 43.0 85.0 225.0 250.8 871.2
08/05 05:30 26.2 84 20.68 23.3 15 22 1010.5 0 44.4 42.6 83.8 221.8 246.8 857.4
08/05 05:20 26.1 85 20.81 23.4 17 20 1010.4 0 44.7 42.9 84.5 223.7 249.2 865.7
08/05 05:10 26 86 20.94 23.5 11 17 1010.4 0 45.0 43.2 85.3 225.7 251.6 874.0
08/05 05:00 25.8 86 20.7 23.3 11 19 1010.3 0 44.5 42.8 84.3 223.2 248.4 863.0
08/05 04:50 25.7 86 20.59 23.2 7 9 1010.3 0 44.3 42.6 83.9 222.0 247.0 858.1
08/05 04:40 25.8 86 20.7 23.3 11 13 1010.2 0 44.5 42.8 84.3 223.2 248.4 863.0
08/05 04:30 25.8 85 20.46 23.1 11 19 1010.2 0 44.0 42.3 83.1 220.1 244.6 849.7
08/05 04:20 25.9 84 20.34 23 17 19 1010.1 0 43.7 42.0 82.4 218.2 242.4 842.0
08/05 04:10 25.8 85 20.46 23.1 13 15 1010.1 0 44.0 42.3 83.1 220.0 244.6 849.7
08/05 04:00 25.8 85 20.46 23.1 15 20 1010.1 0 44.0 42.3 83.1 220.0 244.6 849.7
08/05 03:50 25.8 86 20.7 23.3 11 13 1010.2 0 44.5 42.8 84.3 223.2 248.4 863.0
08/05 03:40 25.9 85 20.58 23.2 11 15 1010.1 0 44.2 42.5 83.6 221.3 246.1 855.1
08/05 03:30 25.8 85 20.46 23.1 13 20 1010 0 44.0 42.3 83.1 220.0 244.6 849.6
08/05 03:20 25.9 84 20.34 23 15 20 1010 0 43.7 42.0 82.4 218.2 242.3 841.9
08/05 03:10 25.9 84 20.34 23 20 22 1010 0 43.7 42.0 82.4 218.2 242.3 841.9
08/05 03:00 25.9 84 20.34 23 17 24 1010.1 0 43.7 42.0 82.4 218.2 242.4 842.0
08/05 02:50 26 84 20.45 23.1 20 26 1010 0 44.0 42.2 82.9 219.3 243.7 846.8
08/05 02:40 25.9 83 20.09 22.8 17 19 1010.1 0 43.2 41.5 81.2 215.0 238.4 828.3
08/05 02:30 26 83 20.21 22.9 19 26 1010.2 0 43.4 41.7 81.7 216.3 240.0 833.8
08/05 02:20 26 83 20.21 22.9 19 22 1010.2 0 43.4 41.7 81.7 216.3 240.0 833.8
08/05 02:10 26 83 20.21 22.9 19 22 1010.3 0 43.4 41.7 81.7 216.3 240.0 833.9
08/05 02:00 25.9 84 20.34 23 19 28 1010.3 0 43.7 42.0 82.5 218.2 242.4 842.1
08/05 01:50 25.9 84 20.34 23 17 20 1010.2 0 43.7 42.0 82.4 218.2 242.4 842.0
08/05 01:40 26 84 20.45 23.1 19 28 1010.3 0 44.0 42.2 82.9 219.4 243.8 847.0
08/05 01:30 26 84 20.45 23.1 19 24 1010.4 0 44.0 42.2 82.9 219.4 243.8 847.0
08/05 01:20 26 83 20.21 22.9 17 19 1010.5 0 43.4 41.7 81.7 216.3 240.0 834.0
08/05 01:10 25.9 84 20.34 23 19 20 1010.5 0 43.7 42.0 82.5 218.3 242.4 842.2
08/05 01:00 26 85 20.69 23.3 17 24 1010.6 0 44.5 42.7 84.1 222.5 247.6 860.3
08/05 00:50 26 84 20.45 23.1 19 20 1010.6 0 44.0 42.2 82.9 219.4 243.8 847.1
08/05 00:40 26 84 20.45 23.1 19 20 1010.7 0 44.0 42.2 82.9 219.4 243.9 847.2
08/05 00:30 26 84 20.45 23.1 19 26 1010.9 0 43.9 42.2 82.9 219.5 243.9 847.3
08/05 00:20 25.9 85 20.58 23.2 17 19 1011 0 44.2 42.5 83.7 221.4 246.3 855.6
08/05 00:10 26.1 84 20.56 23.2 22 24 1011.1 0 44.2 42.4 83.3 220.6 245.3 852.3
08/05 00:00 26.1 83 20.32 23 22 28 1011.1 0 43.7 41.9 82.2 217.5 241.5 839.2
07/05 23:50 26 83 20.21 22.9 17 19 1011.2 0 43.4 41.8 81.8 216.4 240.2 834.4
07/05 23:40 26 84 20.45 23.1 22 26 1011.3 0 43.9 42.2 82.9 219.5 244.0 847.5
07/05 23:30 26.1 84 20.56 23.2 19 26 1011.4 0 44.2 42.4 83.4 220.7 245.4 852.5
07/05 23:20 26.1 84 20.56 23.2 22 26 1011.5 0 44.2 42.4 83.4 220.7 245.4 852.6
07/05 23:10 26.1 85 20.81 23.4 13 17 1011.6 0 44.7 42.9 84.6 223.9 249.4 866.4
07/05 23:00 26.2 84 20.68 23.3 17 22 1011.8 0 44.4 42.6 83.9 222.0 247.0 858.2
07/05 22:50 26.2 84 20.68 23.3 17 19 1011.8 0 44.4 42.6 83.9 222.0 247.0 858.2
07/05 22:40 26.2 84 20.68 23.3 15 17 1011.8 0 44.4 42.6 83.9 222.0 247.0 858.2
07/05 22:30 26.1 83 20.32 23 15 22 1011.8 0 43.7 42.0 82.2 217.6 241.7 839.6
07/05 22:20 26.2 82 20.19 22.9 17 20 1011.8 0 43.4 41.7 81.5 215.7 239.3 831.4
07/05 22:10 26.3 82 20.3 23 19 24 1011.8 0 43.6 41.8 81.9 216.8 240.7 836.3
07/05 22:00 26.3 81 20.05 22.8 19 26 1011.8 0 43.1 41.3 80.7 213.6 236.8 822.7
07/05 21:50 26.2 82 20.19 22.9 19 20 1011.8 0 43.4 41.7 81.5 215.7 239.3 831.4
07/05 21:40 26.3 82 20.3 23 17 19 1011.7 0 43.6 41.8 81.9 216.8 240.7 836.2
07/05 21:30 26.3 82 20.3 23 19 26 1011.8 0 43.6 41.8 81.9 216.8 240.7 836.3
07/05 21:20 26.3 81 20.05 22.8 19 20 1011.8 0 43.1 41.3 80.7 213.6 236.8 822.7
07/05 21:10 26.3 81 20.05 22.8 19 22 1011.8 0 43.1 41.3 80.7 213.6 236.8 822.7
07/05 21:00 26.4 81 20.16 22.9 19 28 1011.7 0 43.3 41.5 81.1 214.7 238.2 827.5
07/05 20:50 26.4 80 19.92 22.7 17 20 1011.6 0 42.8 41.0 80.0 211.7 234.4 814.5
07/05 20:40 26.4 80 19.92 22.7 15 19 1011.6 0 42.8 41.0 80.0 211.7 234.4 814.5
07/05 20:30 26.4 80 19.92 22.7 15 20 1011.5 0 42.8 41.0 80.0 211.7 234.4 814.5
07/05 20:20 26.5 80 20.03 22.8 19 24 1011.3 0 43.0 41.2 80.4 212.7 235.8 819.2
07/05 20:10 26.5 79 19.78 22.6 17 19 1011 0 42.5 40.7 79.2 209.5 231.9 805.6
07/05 20:00 26.6 79 19.89 22.7 17 26 1010.8 0 42.7 40.8 79.6 210.6 233.2 810.3

Last Refresh: 08-May-2026 12:07:35

Bureau of Meteorology